< Typhoon 199020 1990 Season Typhoon 199022 >
Typhoon 199021 (HATTIE)
General InformationTrack Information on Google MapsDetailed Wind InformationList of All Images || Disaster Info.ResourceGoogle EarthGE AnimationAtom FeedGeoJSON
Detalied Best Track (Time Zone = UTC)
Year Month Day Hour Lat. Long. Pressure (hPa) Wind (kt) Class Image Chart
1990 9 30 06 16.0 150.0 1004 0 2 Image Chart
1990 9 30 12 15.6 149.5 1004 0 2 Image Chart
1990 9 30 18 15.2 149.0 1002 0 2 Image Chart
1990 10 1 00 15.2 148.6 1000 0 2 Image Chart
1990 10 1 06 15.4 148.1 1000 0 2 Image Chart
1990 10 1 12 15.8 147.7 998 35 3 Image Chart
1990 10 1 18 16.5 146.1 994 40 3 Image Chart
1990 10 2 00 17.0 144.5 990 45 3 Image Chart
1990 10 2 06 17.2 143.0 985 50 4 Image Chart
1990 10 2 12 17.7 141.7 980 55 4 Image Chart
1990 10 2 18 18.2 140.4 975 60 4 Image Chart
1990 10 3 00 18.7 138.9 970 65 5 Image Chart
1990 10 3 06 19.7 137.4 965 70 5 Image Chart
1990 10 3 12 20.3 135.5 960 70 5 Image Chart
1990 10 3 18 21.0 133.9 960 70 5 Image Chart
1990 10 4 00 22.0 132.4 955 75 5 Image Chart
1990 10 4 06 22.9 131.1 955 75 5 Image Chart
1990 10 4 12 23.6 130.1 955 75 5 Image Chart
1990 10 4 18 24.1 129.1 955 75 5 Image Chart
1990 10 5 00 24.6 128.3 950 80 5 Image Chart
1990 10 5 06 25.1 127.6 950 80 5 Image Chart
1990 10 5 12 25.6 127.3 950 80 5 Image Chart
1990 10 5 18 26.8 127.0 950 80 5 Image Chart
1990 10 6 00 27.6 127.0 950 80 5 Image Chart
1990 10 6 06 28.1 127.2 950 80 5 Image Chart
1990 10 6 12 28.7 127.7 955 75 5 Image Chart
1990 10 6 18 29.0 128.0 965 70 5 Image Chart
1990 10 7 00 29.4 128.2 970 65 5 Image Chart
1990 10 7 06 29.6 128.7 975 60 4 Image Chart
1990 10 7 12 30.3 129.8 975 60 4 Image Chart
1990 10 7 18 31.5 131.8 975 60 4 Image Chart
1990 10 8 00 33.2 134.4 982 55 4 Image Chart
1990 10 8 06 34.8 138.1 988 45 3 Image Chart
1990 10 8 09 36.0 141.0 994 0 6 Image Chart
1990 10 8 12 37.0 144.0 996 0 6 Image Chart
1990 10 8 18 38.0 148.0 998 0 6 Image Chart
1990 10 9 00 39.0 153.0 1000 0 6 Image Chart
Japan Meteorological Agency Best Track Data | Correction Date : 1992-10-21
< Typhoon 199020 1990 Season Typhoon 199022 >

Help